createdAt,value
2023-02-11T05:00:33.257Z,35.90
2023-02-11T05:11:38.080Z,33.60
2023-02-11T05:22:37.955Z,35.90
2023-02-11T05:33:37.834Z,35.10
2023-02-11T05:44:37.709Z,31.50
2023-02-11T05:55:37.702Z,31.20
2023-02-11T06:06:37.501Z,32.10
2023-02-11T06:17:37.352Z,31.10
2023-02-11T06:28:38.763Z,33.60
2023-02-11T06:39:37.114Z,32.80
2023-02-11T06:50:37.059Z,27.10
2023-02-11T07:01:36.919Z,29.30
2023-02-11T07:12:36.752Z,21.90
2023-02-11T07:23:36.633Z,30.60
2023-02-11T07:34:36.507Z,23.00
2023-02-11T07:45:36.374Z,38.10
2023-02-11T07:56:36.248Z,25.70
2023-02-11T08:07:36.167Z,22.20
2023-02-11T08:18:36.014Z,31.60
2023-02-11T08:29:35.927Z,26.70
2023-02-11T08:40:35.751Z,28.10
2023-02-11T08:51:35.635Z,15.90
2023-02-11T09:02:35.551Z,21.80
2023-02-11T09:13:35.392Z,21.70
2023-02-11T09:24:35.273Z,18.90
2023-02-11T09:35:35.135Z,22.80
2023-02-11T09:46:35.097Z,19.80
2023-02-11T09:57:34.887Z,18.90
2023-02-11T10:08:34.765Z,21.60
2023-02-11T10:19:34.638Z,19.80
2023-02-11T10:30:34.564Z,21.50
2023-02-11T10:41:34.402Z,18.00
2023-02-11T10:52:34.267Z,19.80
2023-02-11T11:03:34.143Z,22.40
2023-02-11T11:14:34.029Z,21.70
2023-02-11T11:25:33.897Z,24.40
2023-02-11T11:36:33.780Z,20.20
2023-02-11T11:47:33.639Z,22.00
2023-02-11T11:58:33.515Z,23.30
2023-02-11T12:09:33.404Z,32.70
2023-02-11T12:20:33.264Z,31.50
2023-02-11T12:31:33.179Z,27.90
2023-02-11T12:42:33.022Z,22.40
2023-02-11T12:53:32.884Z,29.20
2023-02-11T13:04:32.759Z,32.30
2023-02-11T13:15:32.637Z,18.60
2023-02-11T13:26:32.566Z,25.00
2023-02-11T13:37:32.399Z,21.10
2023-02-11T13:48:32.275Z,16.90
2023-02-11T13:59:32.136Z,15.60
2023-02-11T14:10:32.018Z,15.70
2023-02-11T14:21:31.893Z,15.30
2023-02-11T14:32:31.781Z,13.40
2023-02-11T14:43:31.653Z,16.20
2023-02-11T14:54:31.526Z,14.60
2023-02-11T15:05:31.401Z,11.90
2023-02-11T15:16:31.268Z,13.20
2023-02-11T15:27:31.148Z,13.70
2023-02-11T15:38:31.026Z,11.90
2023-02-11T15:49:30.895Z,14.40
2023-02-11T16:00:30.781Z,19.10
2023-02-11T16:11:30.648Z,13.10
2023-02-11T16:22:30.525Z,18.40
2023-02-11T16:33:30.405Z,19.80
2023-02-11T16:44:31.015Z,24.00
2023-02-11T16:55:30.168Z,15.10
2023-02-11T17:06:30.047Z,15.00
2023-02-11T17:17:29.907Z,23.30
2023-02-11T17:28:29.838Z,14.10
2023-02-11T17:39:29.648Z,18.20
2023-02-11T17:50:29.651Z,16.70
2023-02-11T18:01:29.507Z,12.00
2023-02-11T18:12:29.310Z,11.70
2023-02-11T18:23:29.147Z,14.80
2023-02-11T18:34:29.028Z,22.80
2023-02-11T18:45:29.026Z,21.30
2023-02-11T18:56:28.880Z,22.30
2023-02-11T19:07:28.670Z,22.50
2023-02-11T19:18:28.589Z,21.80
2023-02-11T19:29:28.407Z,27.00
2023-02-11T19:40:28.318Z,28.10
2023-02-11T19:51:28.162Z,30.60
2023-02-11T20:02:28.088Z,25.40
2023-02-11T20:13:27.918Z,28.30
2023-02-11T20:24:27.800Z,17.50
2023-02-11T20:35:27.653Z,20.20
2023-02-11T20:46:27.576Z,23.00
2023-02-11T20:57:27.402Z,22.60
2023-02-11T21:08:27.289Z,26.20
2023-02-11T21:19:27.152Z,27.20
2023-02-11T21:30:27.505Z,33.50
2023-02-11T21:41:26.927Z,26.50
2023-02-11T21:52:26.786Z,27.80
